sensor_id;sensor_type;location;lat;lon;timestamp;P1;durP1;ratioP1;P2;durP2;ratioP2
21798;SDS011;24973;47.178;15.316;2022-07-30T00:01:14;9.83;;;7.90;;
21798;SDS011;24973;47.178;15.316;2022-07-30T00:04:03;11.13;;;6.97;;
21798;SDS011;24973;47.178;15.316;2022-07-30T00:06:52;8.50;;;7.70;;
21798;SDS011;24973;47.178;15.316;2022-07-30T00:09:41;7.57;;;6.87;;
21798;SDS011;24973;47.178;15.316;2022-07-30T00:12:29;8.30;;;7.43;;
21798;SDS011;24973;47.178;15.316;2022-07-30T00:15:18;7.53;;;6.83;;
21798;SDS011;24973;47.178;15.316;2022-07-30T00:18:08;8.50;;;6.57;;
21798;SDS011;24973;47.178;15.316;2022-07-30T00:20:57;9.87;;;7.90;;
21798;SDS011;24973;47.178;15.316;2022-07-30T00:23:47;7.47;;;6.60;;
21798;SDS011;24973;47.178;15.316;2022-07-30T00:26:35;5.87;;;5.37;;
21798;SDS011;24973;47.178;15.316;2022-07-30T00:29:24;7.00;;;6.40;;
21798;SDS011;24973;47.178;15.316;2022-07-30T00:32:13;6.50;;;5.90;;
21798;SDS011;24973;47.178;15.316;2022-07-30T00:35:03;7.77;;;6.83;;
21798;SDS011;24973;47.178;15.316;2022-07-30T00:37:53;7.63;;;6.93;;
21798;SDS011;24973;47.178;15.316;2022-07-30T00:40:42;6.63;;;5.93;;
21798;SDS011;24973;47.178;15.316;2022-07-30T00:43:33;7.87;;;6.20;;
21798;SDS011;24973;47.178;15.316;2022-07-30T00:46:22;6.63;;;5.80;;
21798;SDS011;24973;47.178;15.316;2022-07-30T00:49:11;7.23;;;6.53;;
21798;SDS011;24973;47.178;15.316;2022-07-30T00:52:01;8.83;;;6.50;;
21798;SDS011;24973;47.178;15.316;2022-07-30T00:54:50;6.80;;;6.20;;
21798;SDS011;24973;47.178;15.316;2022-07-30T00:57:39;6.93;;;6.30;;
21798;SDS011;24973;47.178;15.316;2022-07-30T01:00:28;6.93;;;6.23;;
21798;SDS011;24973;47.178;15.316;2022-07-30T01:03:17;6.97;;;6.27;;
21798;SDS011;24973;47.178;15.316;2022-07-30T01:06:06;9.00;;;6.60;;
21798;SDS011;24973;47.178;15.316;2022-07-30T01:08:56;6.83;;;6.17;;
21798;SDS011;24973;47.178;15.316;2022-07-30T01:11:45;7.13;;;6.50;;
21798;SDS011;24973;47.178;15.316;2022-07-30T01:14:34;7.67;;;6.97;;
21798;SDS011;24973;47.178;15.316;2022-07-30T01:17:24;7.70;;;7.00;;
21798;SDS011;24973;47.178;15.316;2022-07-30T01:20:14;8.20;;;7.07;;
21798;SDS011;24973;47.178;15.316;2022-07-30T01:23:08;7.30;;;6.70;;
21798;SDS011;24973;47.178;15.316;2022-07-30T01:26:06;6.97;;;6.30;;
21798;SDS011;24973;47.178;15.316;2022-07-30T01:28:58;7.50;;;6.80;;
21798;SDS011;24973;47.178;15.316;2022-07-30T01:31:48;6.93;;;6.20;;
21798;SDS011;24973;47.178;15.316;2022-07-30T01:34:41;9.27;;;7.23;;
21798;SDS011;24973;47.178;15.316;2022-07-30T01:37:30;11.67;;;7.27;;
21798;SDS011;24973;47.178;15.316;2022-07-30T01:40:20;7.73;;;6.23;;
21798;SDS011;24973;47.178;15.316;2022-07-30T01:43:13;8.63;;;7.00;;
21798;SDS011;24973;47.178;15.316;2022-07-30T01:46:05;8.33;;;7.60;;
21798;SDS011;24973;47.178;15.316;2022-07-30T01:48:55;8.70;;;6.43;;
21798;SDS011;24973;47.178;15.316;2022-07-30T01:51:44;9.17;;;7.97;;
21798;SDS011;24973;47.178;15.316;2022-07-30T01:54:35;8.07;;;7.27;;
21798;SDS011;24973;47.178;15.316;2022-07-30T01:57:26;6.67;;;5.90;;
21798;SDS011;24973;47.178;15.316;2022-07-30T02:00:17;6.53;;;5.93;;
21798;SDS011;24973;47.178;15.316;2022-07-30T02:03:06;6.40;;;5.70;;
21798;SDS011;24973;47.178;15.316;2022-07-30T02:05:57;9.37;;;6.00;;
21798;SDS011;24973;47.178;15.316;2022-07-30T02:08:53;6.50;;;5.90;;
21798;SDS011;24973;47.178;15.316;2022-07-30T02:11:46;5.97;;;5.47;;
21798;SDS011;24973;47.178;15.316;2022-07-30T02:14:59;6.20;;;5.67;;
21798;SDS011;24973;47.178;15.316;2022-07-30T02:18:00;5.37;;;4.87;;
21798;SDS011;24973;47.178;15.316;2022-07-30T02:20:56;11.47;;;5.57;;
21798;SDS011;24973;47.178;15.316;2022-07-30T02:23:50;8.27;;;5.13;;
21798;SDS011;24973;47.178;15.316;2022-07-30T02:26:42;4.20;;;3.80;;
21798;SDS011;24973;47.178;15.316;2022-07-30T02:29:36;4.50;;;4.10;;
21798;SDS011;24973;47.178;15.316;2022-07-30T02:32:26;5.23;;;4.73;;
21798;SDS011;24973;47.178;15.316;2022-07-30T02:35:22;4.57;;;4.27;;
21798;SDS011;24973;47.178;15.316;2022-07-30T02:38:13;4.87;;;4.47;;
21798;SDS011;24973;47.178;15.316;2022-07-30T02:41:04;5.57;;;4.03;;
21798;SDS011;24973;47.178;15.316;2022-07-30T02:43:56;4.47;;;4.07;;
21798;SDS011;24973;47.178;15.316;2022-07-30T02:46:46;4.93;;;4.43;;
21798;SDS011;24973;47.178;15.316;2022-07-30T02:49:36;4.23;;;3.63;;
21798;SDS011;24973;47.178;15.316;2022-07-30T02:52:28;4.00;;;3.70;;
21798;SDS011;24973;47.178;15.316;2022-07-30T02:55:19;5.33;;;4.57;;
21798;SDS011;24973;47.178;15.316;2022-07-30T02:58:10;6.00;;;4.23;;
21798;SDS011;24973;47.178;15.316;2022-07-30T03:01:02;3.90;;;3.60;;
21798;SDS011;24973;47.178;15.316;2022-07-30T03:03:52;4.43;;;4.03;;
21798;SDS011;24973;47.178;15.316;2022-07-30T03:06:42;4.00;;;3.70;;
21798;SDS011;24973;47.178;15.316;2022-07-30T03:09:33;3.53;;;3.23;;
21798;SDS011;24973;47.178;15.316;2022-07-30T03:12:24;5.73;;;3.17;;
21798;SDS011;24973;47.178;15.316;2022-07-30T03:15:16;3.93;;;3.50;;
21798;SDS011;24973;47.178;15.316;2022-07-30T03:18:05;3.53;;;3.23;;
21798;SDS011;24973;47.178;15.316;2022-07-30T03:20:57;6.90;;;3.93;;
21798;SDS011;24973;47.178;15.316;2022-07-30T03:23:47;6.23;;;4.23;;
21798;SDS011;24973;47.178;15.316;2022-07-30T03:26:39;4.63;;;3.87;;
21798;SDS011;24973;47.178;15.316;2022-07-30T03:29:29;6.50;;;3.63;;
21798;SDS011;24973;47.178;15.316;2022-07-30T03:32:19;3.77;;;3.47;;
21798;SDS011;24973;47.178;15.316;2022-07-30T03:35:09;3.67;;;3.37;;
21798;SDS011;24973;47.178;15.316;2022-07-30T03:37:58;4.10;;;3.50;;
21798;SDS011;24973;47.178;15.316;2022-07-30T03:40:48;3.20;;;2.90;;
21798;SDS011;24973;47.178;15.316;2022-07-30T03:43:39;6.57;;;3.33;;
21798;SDS011;24973;47.178;15.316;2022-07-30T03:46:28;4.03;;;3.70;;
21798;SDS011;24973;47.178;15.316;2022-07-30T03:49:19;5.07;;;4.57;;
21798;SDS011;24973;47.178;15.316;2022-07-30T03:52:10;4.07;;;3.67;;
21798;SDS011;24973;47.178;15.316;2022-07-30T03:54:59;4.33;;;3.87;;
21798;SDS011;24973;47.178;15.316;2022-07-30T03:57:49;4.80;;;4.20;;
21798;SDS011;24973;47.178;15.316;2022-07-30T04:00:39;3.80;;;3.50;;
21798;SDS011;24973;47.178;15.316;2022-07-30T04:03:29;4.30;;;3.90;;
21798;SDS011;24973;47.178;15.316;2022-07-30T04:06:19;3.63;;;3.33;;
21798;SDS011;24973;47.178;15.316;2022-07-30T04:09:08;3.70;;;3.30;;
21798;SDS011;24973;47.178;15.316;2022-07-30T04:11:59;5.40;;;3.97;;
21798;SDS011;24973;47.178;15.316;2022-07-30T04:14:47;4.67;;;2.97;;
21798;SDS011;24973;47.178;15.316;2022-07-30T04:17:39;4.33;;;3.73;;
21798;SDS011;24973;47.178;15.316;2022-07-30T04:20:33;3.70;;;3.40;;
21798;SDS011;24973;47.178;15.316;2022-07-30T04:23:27;3.53;;;3.23;;
21798;SDS011;24973;47.178;15.316;2022-07-30T04:26:16;3.70;;;3.40;;
21798;SDS011;24973;47.178;15.316;2022-07-30T04:29:06;4.10;;;3.70;;
21798;SDS011;24973;47.178;15.316;2022-07-30T04:31:57;5.47;;;4.97;;
21798;SDS011;24973;47.178;15.316;2022-07-30T04:34:49;4.50;;;3.80;;
21798;SDS011;24973;47.178;15.316;2022-07-30T04:37:39;4.83;;;3.60;;
21798;SDS011;24973;47.178;15.316;2022-07-30T04:40:28;4.83;;;4.33;;
21798;SDS011;24973;47.178;15.316;2022-07-30T04:43:18;7.83;;;4.03;;
21798;SDS011;24973;47.178;15.316;2022-07-30T04:46:06;4.40;;;3.83;;
21798;SDS011;24973;47.178;15.316;2022-07-30T04:48:55;4.30;;;3.60;;
21798;SDS011;24973;47.178;15.316;2022-07-30T04:51:45;4.90;;;4.00;;
21798;SDS011;24973;47.178;15.316;2022-07-30T04:54:36;9.67;;;4.57;;
21798;SDS011;24973;47.178;15.316;2022-07-30T04:57:29;4.13;;;3.83;;
21798;SDS011;24973;47.178;15.316;2022-07-30T05:00:20;4.77;;;4.27;;
21798;SDS011;24973;47.178;15.316;2022-07-30T05:03:10;4.20;;;3.80;;
21798;SDS011;24973;47.178;15.316;2022-07-30T05:06:01;3.47;;;3.17;;
21798;SDS011;24973;47.178;15.316;2022-07-30T05:08:53;3.83;;;3.47;;
21798;SDS011;24973;47.178;15.316;2022-07-30T05:11:48;3.53;;;3.23;;
21798;SDS011;24973;47.178;15.316;2022-07-30T05:14:38;4.83;;;4.43;;
21798;SDS011;24973;47.178;15.316;2022-07-30T05:17:28;3.60;;;2.97;;
21798;SDS011;24973;47.178;15.316;2022-07-30T05:20:17;3.67;;;2.93;;
21798;SDS011;24973;47.178;15.316;2022-07-30T05:23:05;7.87;;;2.80;;
21798;SDS011;24973;47.178;15.316;2022-07-30T05:25:57;2.47;;;2.27;;
21798;SDS011;24973;47.178;15.316;2022-07-30T05:28:45;2.60;;;2.40;;
21798;SDS011;24973;47.178;15.316;2022-07-30T05:31:37;3.53;;;3.00;;
21798;SDS011;24973;47.178;15.316;2022-07-30T05:34:26;3.13;;;2.83;;
21798;SDS011;24973;47.178;15.316;2022-07-30T05:37:15;3.57;;;3.20;;
21798;SDS011;24973;47.178;15.316;2022-07-30T05:40:04;4.93;;;3.27;;
21798;SDS011;24973;47.178;15.316;2022-07-30T05:42:56;3.73;;;3.33;;
21798;SDS011;24973;47.178;15.316;2022-07-30T05:45:45;3.50;;;3.00;;
21798;SDS011;24973;47.178;15.316;2022-07-30T05:48:33;3.40;;;2.37;;
21798;SDS011;24973;47.178;15.316;2022-07-30T05:51:22;3.13;;;2.57;;
21798;SDS011;24973;47.178;15.316;2022-07-30T05:54:11;2.97;;;2.40;;
21798;SDS011;24973;47.178;15.316;2022-07-30T05:57:00;3.10;;;1.97;;
21798;SDS011;24973;47.178;15.316;2022-07-30T05:59:50;4.43;;;2.60;;
21798;SDS011;24973;47.178;15.316;2022-07-30T06:02:39;2.60;;;2.20;;
21798;SDS011;24973;47.178;15.316;2022-07-30T06:05:28;2.97;;;2.60;;
21798;SDS011;24973;47.178;15.316;2022-07-30T06:08:18;2.97;;;2.70;;
21798;SDS011;24973;47.178;15.316;2022-07-30T06:11:06;3.47;;;2.03;;
21798;SDS011;24973;47.178;15.316;2022-07-30T06:13:55;2.77;;;2.57;;
21798;SDS011;24973;47.178;15.316;2022-07-30T06:16:45;4.10;;;2.70;;
21798;SDS011;24973;47.178;15.316;2022-07-30T06:19:34;2.87;;;2.50;;
21798;SDS011;24973;47.178;15.316;2022-07-30T06:22:23;2.77;;;2.57;;
21798;SDS011;24973;47.178;15.316;2022-07-30T06:25:12;2.47;;;2.27;;
21798;SDS011;24973;47.178;15.316;2022-07-30T06:28:00;2.40;;;2.30;;
21798;SDS011;24973;47.178;15.316;2022-07-30T06:31:01;3.83;;;2.80;;
21798;SDS011;24973;47.178;15.316;2022-07-30T06:33:51;3.80;;;2.50;;
21798;SDS011;24973;47.178;15.316;2022-07-30T06:36:40;2.20;;;2.10;;
21798;SDS011;24973;47.178;15.316;2022-07-30T06:39:28;2.00;;;1.90;;
21798;SDS011;24973;47.178;15.316;2022-07-30T06:42:17;1.80;;;1.70;;
21798;SDS011;24973;47.178;15.316;2022-07-30T06:45:06;2.17;;;1.90;;
21798;SDS011;24973;47.178;15.316;2022-07-30T06:47:57;4.23;;;2.07;;
21798;SDS011;24973;47.178;15.316;2022-07-30T06:50:47;3.50;;;2.10;;
21798;SDS011;24973;47.178;15.316;2022-07-30T06:53:36;1.87;;;1.77;;
21798;SDS011;24973;47.178;15.316;2022-07-30T06:56:25;2.50;;;2.30;;
21798;SDS011;24973;47.178;15.316;2022-07-30T06:59:13;2.10;;;1.90;;
21798;SDS011;24973;47.178;15.316;2022-07-30T07:02:02;2.27;;;1.80;;
21798;SDS011;24973;47.178;15.316;2022-07-30T07:04:51;9.10;;;1.90;;
21798;SDS011;24973;47.178;15.316;2022-07-30T07:07:41;1.77;;;1.67;;
21798;SDS011;24973;47.178;15.316;2022-07-30T07:10:38;3.57;;;1.53;;
21798;SDS011;24973;47.178;15.316;2022-07-30T07:13:26;2.50;;;1.77;;
21798;SDS011;24973;47.178;15.316;2022-07-30T07:16:15;2.57;;;1.93;;
21798;SDS011;24973;47.178;15.316;2022-07-30T07:19:07;2.47;;;2.20;;
21798;SDS011;24973;47.178;15.316;2022-07-30T07:21:56;1.90;;;1.80;;
21798;SDS011;24973;47.178;15.316;2022-07-30T07:24:46;2.03;;;1.83;;
21798;SDS011;24973;47.178;15.316;2022-07-30T07:27:35;2.33;;;1.73;;
21798;SDS011;24973;47.178;15.316;2022-07-30T07:30:24;1.53;;;1.43;;
21798;SDS011;24973;47.178;15.316;2022-07-30T07:33:13;4.07;;;2.10;;
21798;SDS011;24973;47.178;15.316;2022-07-30T07:36:02;3.47;;;2.17;;
21798;SDS011;24973;47.178;15.316;2022-07-30T07:38:51;4.20;;;1.63;;
21798;SDS011;24973;47.178;15.316;2022-07-30T07:41:41;1.93;;;1.73;;
21798;SDS011;24973;47.178;15.316;2022-07-30T07:44:30;3.00;;;2.00;;
21798;SDS011;24973;47.178;15.316;2022-07-30T07:47:19;2.40;;;1.63;;
21798;SDS011;24973;47.178;15.316;2022-07-30T07:50:08;2.20;;;1.90;;
21798;SDS011;24973;47.178;15.316;2022-07-30T07:52:56;2.87;;;1.53;;
21798;SDS011;24973;47.178;15.316;2022-07-30T07:55:47;1.60;;;1.50;;
21798;SDS011;24973;47.178;15.316;2022-07-30T07:58:37;2.53;;;2.00;;
21798;SDS011;24973;47.178;15.316;2022-07-30T08:01:26;2.50;;;2.30;;
21798;SDS011;24973;47.178;15.316;2022-07-30T08:04:15;3.33;;;2.60;;
21798;SDS011;24973;47.178;15.316;2022-07-30T08:07:04;1.90;;;1.70;;
21798;SDS011;24973;47.178;15.316;2022-07-30T08:09:53;2.30;;;2.00;;
21798;SDS011;24973;47.178;15.316;2022-07-30T08:12:41;2.93;;;2.20;;
21798;SDS011;24973;47.178;15.316;2022-07-30T08:15:31;2.73;;;2.00;;
21798;SDS011;24973;47.178;15.316;2022-07-30T08:18:20;2.00;;;1.90;;
21798;SDS011;24973;47.178;15.316;2022-07-30T08:21:10;2.50;;;2.30;;
21798;SDS011;24973;47.178;15.316;2022-07-30T08:23:58;2.00;;;1.73;;
21798;SDS011;24973;47.178;15.316;2022-07-30T08:26:47;3.40;;;1.90;;
21798;SDS011;24973;47.178;15.316;2022-07-30T08:29:36;2.33;;;2.13;;
21798;SDS011;24973;47.178;15.316;2022-07-30T08:32:26;1.90;;;1.80;;
21798;SDS011;24973;47.178;15.316;2022-07-30T08:35:15;2.20;;;2.00;;
21798;SDS011;24973;47.178;15.316;2022-07-30T08:38:03;1.87;;;1.77;;
21798;SDS011;24973;47.178;15.316;2022-07-30T08:40:53;2.03;;;1.83;;
21798;SDS011;24973;47.178;15.316;2022-07-30T08:43:42;2.80;;;1.90;;
21798;SDS011;24973;47.178;15.316;2022-07-30T08:46:34;1.67;;;1.57;;
21798;SDS011;24973;47.178;15.316;2022-07-30T08:49:30;2.13;;;1.93;;
21798;SDS011;24973;47.178;15.316;2022-07-30T08:52:20;2.77;;;2.57;;
21798;SDS011;24973;47.178;15.316;2022-07-30T08:55:09;4.27;;;2.30;;
21798;SDS011;24973;47.178;15.316;2022-07-30T08:57:58;3.30;;;2.53;;
21798;SDS011;24973;47.178;15.316;2022-07-30T09:00:48;2.83;;;2.60;;
21798;SDS011;24973;47.178;15.316;2022-07-30T09:03:37;2.20;;;1.67;;
21798;SDS011;24973;47.178;15.316;2022-07-30T09:06:27;2.13;;;1.97;;
21798;SDS011;24973;47.178;15.316;2022-07-30T09:09:16;2.50;;;2.07;;
21798;SDS011;24973;47.178;15.316;2022-07-30T09:15:27;2.67;;;1.90;;
21798;SDS011;24973;47.178;15.316;2022-07-30T09:18:24;1.67;;;1.57;;
21798;SDS011;24973;47.178;15.316;2022-07-30T09:21:18;2.23;;;2.03;;
21798;SDS011;24973;47.178;15.316;2022-07-30T09:24:11;2.37;;;2.17;;
21798;SDS011;24973;47.178;15.316;2022-07-30T09:27:00;2.17;;;2.00;;
21798;SDS011;24973;47.178;15.316;2022-07-30T09:29:55;2.20;;;1.93;;
21798;SDS011;24973;47.178;15.316;2022-07-30T09:32:45;2.80;;;2.60;;
21798;SDS011;24973;47.178;15.316;2022-07-30T09:35:36;3.77;;;1.90;;
21798;SDS011;24973;47.178;15.316;2022-07-30T09:38:25;1.97;;;1.87;;
21798;SDS011;24973;47.178;15.316;2022-07-30T09:41:16;2.30;;;2.10;;
21798;SDS011;24973;47.178;15.316;2022-07-30T09:44:27;1.97;;;1.87;;
21798;SDS011;24973;47.178;15.316;2022-07-30T09:47:28;7.07;;;2.77;;
21798;SDS011;24973;47.178;15.316;2022-07-30T09:50:18;2.40;;;2.20;;
21798;SDS011;24973;47.178;15.316;2022-07-30T09:53:09;4.93;;;3.03;;
21798;SDS011;24973;47.178;15.316;2022-07-30T09:55:58;2.03;;;1.87;;
21798;SDS011;24973;47.178;15.316;2022-07-30T09:58:49;2.67;;;2.47;;
21798;SDS011;24973;47.178;15.316;2022-07-30T10:01:50;3.70;;;2.30;;
21798;SDS011;24973;47.178;15.316;2022-07-30T10:04:43;2.10;;;1.90;;
21798;SDS011;24973;47.178;15.316;2022-07-30T10:07:32;3.00;;;2.50;;
21798;SDS011;24973;47.178;15.316;2022-07-30T10:10:22;3.77;;;2.20;;
21798;SDS011;24973;47.178;15.316;2022-07-30T10:13:13;2.53;;;2.13;;
21798;SDS011;24973;47.178;15.316;2022-07-30T10:16:07;2.47;;;2.30;;
21798;SDS011;24973;47.178;15.316;2022-07-30T10:18:57;5.00;;;2.83;;
21798;SDS011;24973;47.178;15.316;2022-07-30T10:21:47;2.20;;;2.00;;
21798;SDS011;24973;47.178;15.316;2022-07-30T10:24:37;2.47;;;2.27;;
21798;SDS011;24973;47.178;15.316;2022-07-30T10:27:27;3.43;;;3.13;;
21798;SDS011;24973;47.178;15.316;2022-07-30T10:30:17;3.17;;;2.70;;
21798;SDS011;24973;47.178;15.316;2022-07-30T10:33:07;4.13;;;2.53;;
21798;SDS011;24973;47.178;15.316;2022-07-30T10:35:58;3.00;;;2.63;;
21798;SDS011;24973;47.178;15.316;2022-07-30T10:38:47;2.73;;;2.50;;
21798;SDS011;24973;47.178;15.316;2022-07-30T10:41:40;2.77;;;2.57;;
21798;SDS011;24973;47.178;15.316;2022-07-30T10:44:51;3.00;;;2.20;;
21798;SDS011;24973;47.178;15.316;2022-07-30T10:47:54;2.30;;;2.10;;
21798;SDS011;24973;47.178;15.316;2022-07-30T10:50:49;4.43;;;3.73;;
21798;SDS011;24973;47.178;15.316;2022-07-30T10:53:41;2.73;;;2.53;;
21798;SDS011;24973;47.178;15.316;2022-07-30T10:56:32;2.73;;;2.47;;
21798;SDS011;24973;47.178;15.316;2022-07-30T10:59:21;4.03;;;2.83;;
21798;SDS011;24973;47.178;15.316;2022-07-30T11:02:12;2.80;;;2.60;;
21798;SDS011;24973;47.178;15.316;2022-07-30T11:08:34;3.10;;;2.77;;
21798;SDS011;24973;47.178;15.316;2022-07-30T11:11:44;2.83;;;2.63;;
21798;SDS011;24973;47.178;15.316;2022-07-30T11:18:02;3.47;;;3.17;;
21798;SDS011;24973;47.178;15.316;2022-07-30T11:21:13;3.63;;;3.33;;
21798;SDS011;24973;47.178;15.316;2022-07-30T11:24:06;3.87;;;3.53;;
21798;SDS011;24973;47.178;15.316;2022-07-30T11:27:34;3.77;;;3.40;;
21798;SDS011;24973;47.178;15.316;2022-07-30T11:30:31;6.67;;;3.83;;
21798;SDS011;24973;47.178;15.316;2022-07-30T11:33:21;4.27;;;3.90;;
21798;SDS011;24973;47.178;15.316;2022-07-30T11:36:11;4.23;;;3.83;;
21798;SDS011;24973;47.178;15.316;2022-07-30T11:39:00;4.40;;;3.40;;
21798;SDS011;24973;47.178;15.316;2022-07-30T11:44:42;3.97;;;3.60;;
21798;SDS011;24973;47.178;15.316;2022-07-30T11:47:32;6.13;;;3.60;;
21798;SDS011;24973;47.178;15.316;2022-07-30T11:50:22;3.87;;;3.57;;
21798;SDS011;24973;47.178;15.316;2022-07-30T11:53:14;4.17;;;3.80;;
21798;SDS011;24973;47.178;15.316;2022-07-30T11:56:05;3.77;;;3.47;;
21798;SDS011;24973;47.178;15.316;2022-07-30T11:58:59;4.17;;;3.80;;
21798;SDS011;24973;47.178;15.316;2022-07-30T12:01:51;4.00;;;3.60;;
21798;SDS011;24973;47.178;15.316;2022-07-30T12:04:42;5.20;;;3.50;;
21798;SDS011;24973;47.178;15.316;2022-07-30T12:07:31;4.20;;;3.90;;
21798;SDS011;24973;47.178;15.316;2022-07-30T12:10:20;3.70;;;3.30;;
21798;SDS011;24973;47.178;15.316;2022-07-30T12:13:10;4.60;;;3.80;;
21798;SDS011;24973;47.178;15.316;2022-07-30T12:16:00;3.07;;;2.80;;
21798;SDS011;24973;47.178;15.316;2022-07-30T12:19:00;4.47;;;3.70;;
21798;SDS011;24973;47.178;15.316;2022-07-30T12:21:51;4.07;;;2.80;;
21798;SDS011;24973;47.178;15.316;2022-07-30T12:24:39;3.07;;;2.87;;
21798;SDS011;24973;47.178;15.316;2022-07-30T12:27:28;3.20;;;2.80;;
21798;SDS011;24973;47.178;15.316;2022-07-30T12:30:17;3.10;;;2.83;;
21798;SDS011;24973;47.178;15.316;2022-07-30T12:33:06;3.43;;;2.80;;
21798;SDS011;24973;47.178;15.316;2022-07-30T12:35:57;3.67;;;3.37;;
21798;SDS011;24973;47.178;15.316;2022-07-30T12:38:47;4.10;;;3.80;;
21798;SDS011;24973;47.178;15.316;2022-07-30T12:41:41;3.37;;;3.13;;
21798;SDS011;24973;47.178;15.316;2022-07-30T12:44:35;3.40;;;3.10;;
21798;SDS011;24973;47.178;15.316;2022-07-30T12:47:27;3.53;;;3.23;;
21798;SDS011;24973;47.178;15.316;2022-07-30T12:50:19;3.37;;;2.80;;
21798;SDS011;24973;47.178;15.316;2022-07-30T12:53:09;3.77;;;3.47;;
21798;SDS011;24973;47.178;15.316;2022-07-30T12:56:08;6.13;;;3.17;;
21798;SDS011;24973;47.178;15.316;2022-07-30T12:58:58;9.57;;;3.07;;
21798;SDS011;24973;47.178;15.316;2022-07-30T13:01:47;44.80;;;6.57;;
21798;SDS011;24973;47.178;15.316;2022-07-30T13:04:48;3.07;;;2.70;;
21798;SDS011;24973;47.178;15.316;2022-07-30T13:07:51;4.57;;;2.60;;
21798;SDS011;24973;47.178;15.316;2022-07-30T13:10:56;3.70;;;2.70;;
21798;SDS011;24973;47.178;15.316;2022-07-30T13:13:47;3.55;;;2.50;;
21798;SDS011;24973;47.178;15.316;2022-07-30T13:16:37;3.83;;;2.83;;
21798;SDS011;24973;47.178;15.316;2022-07-30T13:19:27;5.63;;;3.08;;
21798;SDS011;24973;47.178;15.316;2022-07-30T13:22:16;3.60;;;2.08;;
21798;SDS011;24973;47.178;15.316;2022-07-30T13:25:05;2.30;;;2.10;;
21798;SDS011;24973;47.178;15.316;2022-07-30T13:27:56;2.55;;;2.35;;
21798;SDS011;24973;47.178;15.316;2022-07-30T13:30:45;2.45;;;2.20;;
21798;SDS011;24973;47.178;15.316;2022-07-30T13:33:34;4.40;;;2.25;;
21798;SDS011;24973;47.178;15.316;2022-07-30T13:36:23;3.13;;;2.13;;
21798;SDS011;24973;47.178;15.316;2022-07-30T13:39:12;2.55;;;2.35;;
21798;SDS011;24973;47.178;15.316;2022-07-30T13:42:01;2.38;;;1.77;;
21798;SDS011;24973;47.178;15.316;2022-07-30T13:44:51;2.80;;;1.88;;
21798;SDS011;24973;47.178;15.316;2022-07-30T13:47:40;2.13;;;1.92;;
21798;SDS011;24973;47.178;15.316;2022-07-30T13:50:29;1.98;;;1.88;;
21798;SDS011;24973;47.178;15.316;2022-07-30T13:53:17;3.75;;;1.77;;
21798;SDS011;24973;47.178;15.316;2022-07-30T13:56:06;1.60;;;1.50;;
21798;SDS011;24973;47.178;15.316;2022-07-30T13:58:55;2.10;;;1.92;;
21798;SDS011;24973;47.178;15.316;2022-07-30T14:01:45;1.67;;;1.58;;
21798;SDS011;24973;47.178;15.316;2022-07-30T14:04:34;2.60;;;1.95;;
21798;SDS011;24973;47.178;15.316;2022-07-30T14:07:23;5.23;;;2.50;;
21798;SDS011;24973;47.178;15.316;2022-07-30T14:10:12;2.23;;;1.97;;
21798;SDS011;24973;47.178;15.316;2022-07-30T14:13:02;2.03;;;1.60;;
21798;SDS011;24973;47.178;15.316;2022-07-30T14:15:52;1.50;;;1.40;;
21798;SDS011;24973;47.178;15.316;2022-07-30T14:18:42;2.35;;;1.52;;
21798;SDS011;24973;47.178;15.316;2022-07-30T14:21:31;1.92;;;1.70;;
21798;SDS011;24973;47.178;15.316;2022-07-30T14:24:20;3.27;;;2.10;;
21798;SDS011;24973;47.178;15.316;2022-07-30T14:27:09;2.67;;;1.87;;
21798;SDS011;24973;47.178;15.316;2022-07-30T14:29:58;2.03;;;1.90;;
21798;SDS011;24973;47.178;15.316;2022-07-30T14:32:47;2.30;;;2.10;;
21798;SDS011;24973;47.178;15.316;2022-07-30T14:35:39;2.17;;;1.97;;
21798;SDS011;24973;47.178;15.316;2022-07-30T14:38:28;4.00;;;3.10;;
21798;SDS011;24973;47.178;15.316;2022-07-30T14:41:17;1.57;;;1.47;;
21798;SDS011;24973;47.178;15.316;2022-07-30T14:44:06;5.07;;;1.87;;
21798;SDS011;24973;47.178;15.316;2022-07-30T14:46:57;3.27;;;2.03;;
21798;SDS011;24973;47.178;15.316;2022-07-30T14:49:46;1.70;;;1.60;;
21798;SDS011;24973;47.178;15.316;2022-07-30T14:52:37;1.90;;;1.80;;
21798;SDS011;24973;47.178;15.316;2022-07-30T14:55:25;2.60;;;1.60;;
21798;SDS011;24973;47.178;15.316;2022-07-30T14:58:14;1.30;;;1.20;;
21798;SDS011;24973;47.178;15.316;2022-07-30T15:01:03;1.42;;;1.33;;
21798;SDS011;24973;47.178;15.316;2022-07-30T15:03:53;1.60;;;1.48;;
21798;SDS011;24973;47.178;15.316;2022-07-30T15:06:42;3.20;;;1.30;;
21798;SDS011;24973;47.178;15.316;2022-07-30T15:09:32;9.45;;;2.35;;
21798;SDS011;24973;47.178;15.316;2022-07-30T15:12:21;4.38;;;1.45;;
21798;SDS011;24973;47.178;15.316;2022-07-30T15:15:10;1.52;;;1.30;;
21798;SDS011;24973;47.178;15.316;2022-07-30T15:17:58;1.30;;;1.20;;
21798;SDS011;24973;47.178;15.316;2022-07-30T15:20:47;3.13;;;1.77;;
21798;SDS011;24973;47.178;15.316;2022-07-30T15:23:36;3.38;;;1.20;;
21798;SDS011;24973;47.178;15.316;2022-07-30T15:26:26;1.42;;;1.00;;
21798;SDS011;24973;47.178;15.316;2022-07-30T15:29:15;1.23;;;1.13;;
21798;SDS011;24973;47.178;15.316;2022-07-30T15:32:04;3.17;;;1.23;;
21798;SDS011;24973;47.178;15.316;2022-07-30T15:34:53;1.98;;;1.00;;
21798;SDS011;24973;47.178;15.316;2022-07-30T15:37:44;2.88;;;1.33;;
21798;SDS011;24973;47.178;15.316;2022-07-30T15:40:33;1.27;;;0.90;;
21798;SDS011;24973;47.178;15.316;2022-07-30T15:43:23;5.65;;;1.55;;
21798;SDS011;24973;47.178;15.316;2022-07-30T15:46:12;1.35;;;1.20;;
21798;SDS011;24973;47.178;15.316;2022-07-30T15:49:01;1.70;;;1.42;;
21798;SDS011;24973;47.178;15.316;2022-07-30T15:51:50;1.38;;;1.27;;
21798;SDS011;24973;47.178;15.316;2022-07-30T15:54:39;3.55;;;1.40;;
21798;SDS011;24973;47.178;15.316;2022-07-30T15:57:28;1.02;;;1.02;;
21798;SDS011;24973;47.178;15.316;2022-07-30T16:00:18;1.52;;;1.23;;
21798;SDS011;24973;47.178;15.316;2022-07-30T16:03:07;1.73;;;1.05;;
21798;SDS011;24973;47.178;15.316;2022-07-30T16:05:56;1.00;;;1.00;;
21798;SDS011;24973;47.178;15.316;2022-07-30T16:08:44;1.30;;;1.20;;
21798;SDS011;24973;47.178;15.316;2022-07-30T16:11:33;1.75;;;1.52;;
21798;SDS011;24973;47.178;15.316;2022-07-30T16:14:22;0.80;;;0.80;;
21798;SDS011;24973;47.178;15.316;2022-07-30T16:17:12;1.83;;;1.33;;
21798;SDS011;24973;47.178;15.316;2022-07-30T16:20:02;1.43;;;1.13;;
21798;SDS011;24973;47.178;15.316;2022-07-30T16:22:52;3.30;;;0.90;;
21798;SDS011;24973;47.178;15.316;2022-07-30T16:25:41;2.07;;;1.83;;
21798;SDS011;24973;47.178;15.316;2022-07-30T16:28:29;2.00;;;1.50;;
21798;SDS011;24973;47.178;15.316;2022-07-30T16:31:18;2.77;;;1.20;;
21798;SDS011;24973;47.178;15.316;2022-07-30T16:34:09;2.27;;;1.10;;
21798;SDS011;24973;47.178;15.316;2022-07-30T16:36:57;1.00;;;1.00;;
21798;SDS011;24973;47.178;15.316;2022-07-30T16:39:46;1.20;;;1.10;;
21798;SDS011;24973;47.178;15.316;2022-07-30T16:42:35;1.47;;;1.37;;
21798;SDS011;24973;47.178;15.316;2022-07-30T16:45:24;1.73;;;1.53;;
21798;SDS011;24973;47.178;15.316;2022-07-30T16:48:13;1.27;;;1.17;;
21798;SDS011;24973;47.178;15.316;2022-07-30T16:51:04;1.70;;;1.20;;
21798;SDS011;24973;47.178;15.316;2022-07-30T16:53:53;1.17;;;1.00;;
21798;SDS011;24973;47.178;15.316;2022-07-30T16:56:42;3.13;;;1.20;;
21798;SDS011;24973;47.178;15.316;2022-07-30T16:59:30;2.63;;;1.40;;
21798;SDS011;24973;47.178;15.316;2022-07-30T17:02:19;2.40;;;1.30;;
21798;SDS011;24973;47.178;15.316;2022-07-30T17:05:08;2.43;;;1.43;;